Time;durP1;ratioP1;P1;durP2;ratioP2;P2;SDS_P1;SDS_P2;PMS_P1;PMS_P2;Temp;Humidity;BMP_temperature;BMP_pressure;BME280_temperature;BME280_humidity;BME280_pressure;Samples;Min_cycle;Max_cycle;Signal;HPM_P1;HPM_P2
2023/11/12 00:00:43;;;;;;;;;;;;;;;5.81;100.00;99691.56;5030230;28;20443;-62
2023/11/12 00:03:10;;;;;;;;;;;;;;;5.83;100.00;99688.84;5034901;28;19933;-65
2023/11/12 00:05:38;;;;;;;;;;;;;;;5.85;100.00;99684.38;5033038;28;20009;-61
2023/11/12 00:08:05;;;;;;;;;;;;;;;5.92;100.00;99692.78;5032848;28;19994;-68
2023/11/12 00:10:32;;;;;;;;;;;;;;;5.87;100.00;99695.59;5027610;28;19960;-67
2023/11/12 00:13:00;;;;;;;;;;;;;;;5.76;100.00;99690.09;5024674;28;19933;-66
2023/11/12 00:15:27;;;;;;;;;;;;;;;5.83;100.00;99691.47;5024660;28;20321;-65
2023/11/12 00:17:54;;;;;;;;;;;;;;;5.79;100.00;99690.78;5031526;28;20338;-69
2023/11/12 00:20:24;;;;;;;;;;;;;;;5.84;100.00;99690.53;5016719;28;19929;-66
2023/11/12 00:22:52;;;;;;;;;;;;;;;5.82;100.00;99690.63;5025522;28;19971;-65
2023/11/12 00:25:19;;;;;;;;;;;;;;;5.76;100.00;99693.59;5009341;28;20430;-67
2023/11/12 00:27:46;;;;;;;;;;;;;;;5.73;100.00;99692.91;5016509;28;19933;-68
2023/11/12 00:30:15;;;;;;;;;;;;;;;5.71;100.00;99697.34;5031498;28;19925;-68
2023/11/12 00:32:43;;;;;;;;;;;;;;;5.69;100.00;99697.44;5032180;28;19975;-67
2023/11/12 00:35:13;;;;;;;;;;;;;;;5.73;100.00;99695.50;5032748;28;19960;-67
2023/11/12 00:37:41;;;;;;;;;;;;;;;5.81;100.00;99693.34;5027002;28;20016;-67
2023/11/12 00:40:08;;;;;;;;;;;;;;;5.87;100.00;99698.22;5030207;28;19956;-69
2023/11/12 00:42:35;;;;;;;;;;;;;;;5.87;100.00;99695.59;5048785;28;19953;-74
2023/11/12 00:45:02;;;;;;;;;;;;;;;5.81;100.00;99707.25;5022972;28;19933;-68
2023/11/12 00:47:29;;;;;;;;;;;;;;;5.84;100.00;99701.81;5039679;28;20296;-69
2023/11/12 00:49:56;;;;;;;;;;;;;;;5.88;100.00;99697.28;5037821;28;19991;-63
2023/11/12 00:52:23;;;;;;;;;;;;;;;5.82;100.00;99695.03;5031995;28;19964;-71
2023/11/12 00:54:50;;;;;;;;;;;;;;;5.89;100.00;99704.19;5032555;28;19925;-63
2023/11/12 00:57:18;;;;;;;;;;;;;;;5.90;100.00;99702.41;5034247;28;19932;-67
2023/11/12 00:59:46;;;;;;;;;;;;;;;5.89;100.00;99701.56;5029729;28;19991;-67
2023/11/12 01:02:16;;;;;;;;;;;;;;;5.94;100.00;99698.75;5011226;28;20013;-69
2023/11/12 01:04:43;;;;;;;;;;;;;;;5.97;100.00;99709.88;5025501;28;20020;-75
2023/11/12 01:07:10;;;;;;;;;;;;;;;5.92;100.00;99711.91;5029458;28;19995;-67
2023/11/12 01:09:37;;;;;;;;;;;;;;;5.93;100.00;99710.13;5030280;28;20388;-74
2023/11/12 01:12:04;;;;;;;;;;;;;;;5.82;100.00;99713.31;5042910;28;19952;-65
2023/11/12 01:14:31;;;;;;;;;;;;;;;5.79;100.00;99716.91;5012398;28;19975;-67
2023/11/12 01:16:58;;;;;;;;;;;;;;;5.75;100.00;99706.72;5032710;28;20485;-70
2023/11/12 01:19:25;;;;;;;;;;;;;;;5.80;100.00;99726.41;5012973;28;19961;-72
2023/11/12 01:21:52;;;;;;;;;;;;;;;5.71;100.00;99715.63;5037122;28;20347;-67
2023/11/12 01:24:19;;;;;;;;;;;;;;;5.69;100.00;99717.50;5012550;28;20326;-67
2023/11/12 01:26:47;;;;;;;;;;;;;;;5.65;100.00;99718.56;5038585;28;20343;-67
2023/11/12 01:29:14;;;;;;;;;;;;;;;5.72;100.00;99725.13;5016541;28;19971;-69
2023/11/12 01:31:42;;;;;;;;;;;;;;;5.78;100.00;99719.63;5036684;28;20415;-70
2023/11/12 01:34:09;;;;;;;;;;;;;;;5.80;100.00;99722.97;5035378;28;19964;-69
2023/11/12 01:36:37;;;;;;;;;;;;;;;5.80;100.00;99726.41;5030898;28;19925;-69
2023/11/12 01:39:07;;;;;;;;;;;;;;;5.77;100.00;99720.53;5015410;28;19925;-66
2023/11/12 01:41:34;;;;;;;;;;;;;;;5.76;100.00;99717.09;5035546;28;19933;-66
2023/11/12 01:44:02;;;;;;;;;;;;;;;5.73;100.00;99714.63;5029091;28;19983;-66
2023/11/12 01:46:29;;;;;;;;;;;;;;;5.74;100.00;99723.31;5034472;28;19960;-75
2023/11/12 01:48:57;;;;;;;;;;;;;;;5.72;100.00;99712.09;5029508;28;19929;-69
2023/11/12 01:51:24;;;;;;;;;;;;;;;5.74;100.00;99707.63;5015502;28;20008;-66
2023/11/12 01:53:51;;;;;;;;;;;;;;;5.75;100.00;99707.53;4995510;28;19925;-71
2023/11/12 01:56:19;;;;;;;;;;;;;;;5.77;100.00;99707.47;5009147;28;19925;-66
2023/11/12 01:58:46;;;;;;;;;;;;;;;5.76;100.00;99706.66;5034333;28;19933;-69
2023/11/12 02:01:13;;;;;;;;;;;;;;;5.76;100.00;99701.41;5030329;28;19926;-66
2023/11/12 02:03:41;;;;;;;;;;;;;;;5.80;100.00;99707.31;4999353;28;19959;-69
2023/11/12 02:06:11;;;;;;;;;;;;;;;5.80;100.00;99709.91;5030656;28;20315;-69
2023/11/12 02:08:42;;;;;;;;;;;;;;;5.70;100.00;99711.34;5010835;28;20024;-71
2023/11/12 02:11:11;;;;;;;;;;;;;;;5.75;100.00;99714.53;5027846;28;20414;-67
2023/11/12 02:13:41;;;;;;;;;;;;;;;5.71;100.00;99711.25;5029864;28;19984;-66
2023/11/12 02:16:09;;;;;;;;;;;;;;;5.73;100.00;99703.34;5011820;28;19929;-73
2023/11/12 02:18:36;;;;;;;;;;;;;;;5.79;100.00;99700.41;5029409;28;19932;-72
2023/11/12 02:21:04;;;;;;;;;;;;;;;5.84;100.00;99701.00;5029251;28;19925;-69
2023/11/12 02:23:35;;;;;;;;;;;;;;;5.86;100.00;99693.09;5029111;28;19925;-64
2023/11/12 02:26:02;;;;;;;;;;;;;;;5.86;100.00;99699.16;5029152;28;20023;-65
2023/11/12 02:28:29;;;;;;;;;;;;;;;5.77;100.00;99710.09;5028263;28;19979;-70
2023/11/12 02:30:56;;;;;;;;;;;;;;;5.81;100.00;99704.63;5028531;28;19964;-66
2023/11/12 02:33:27;;;;;;;;;;;;;;;5.79;100.00;99703.00;5027718;28;19999;-74
2023/11/12 02:35:55;;;;;;;;;;;;;;;5.82;100.00;99705.47;5030976;28;19987;-74
2023/11/12 02:38:23;;;;;;;;;;;;;;;5.89;100.00;99701.56;5031519;28;19925;-70
2023/11/12 02:40:50;;;;;;;;;;;;;;;5.84;100.00;99698.38;5034653;28;19990;-65
2023/11/12 02:43:18;;;;;;;;;;;;;;;5.77;100.00;99703.09;5032089;28;19986;-66
2023/11/12 02:45:45;;;;;;;;;;;;;;;5.87;100.00;99700.81;5032508;28;19993;-72
2023/11/12 02:48:12;;;;;;;;;;;;;;;5.93;100.00;99702.28;5026190;28;20007;-66
2023/11/12 02:50:40;;;;;;;;;;;;;;;5.91;100.00;99704.97;5036917;28;20404;-64
2023/11/12 02:53:10;;;;;;;;;;;;;;;5.87;100.00;99707.81;5015026;28;19929;-67
2023/11/12 02:55:37;;;;;;;;;;;;;;;5.86;100.00;99703.53;5043421;28;19984;-70
2023/11/12 02:58:04;;;;;;;;;;;;;;;5.83;100.00;99700.16;5010813;28;19986;-67
2023/11/12 03:00:33;;;;;;;;;;;;;;;5.84;100.00;99708.81;5027196;28;19964;-74
2023/11/12 03:03:00;;;;;;;;;;;;;;;5.68;100.00;99711.44;5029725;28;19925;-65
2023/11/12 03:05:28;;;;;;;;;;;;;;;5.77;100.00;99699.66;5027665;28;20296;-65
2023/11/12 03:07:57;;;;;;;;;;;;;;;5.79;100.00;99703.00;5010956;28;19925;-69
2023/11/12 03:10:25;;;;;;;;;;;;;;;5.84;100.00;99704.44;5024324;28;20485;-68
2023/11/12 03:12:53;;;;;;;;;;;;;;;5.87;100.00;99706.06;5023669;28;19951;-69
2023/11/12 03:15:20;;;;;;;;;;;;;;;5.86;100.00;99707.00;5027828;28;20403;-68
2023/11/12 03:17:48;;;;;;;;;;;;;;;5.86;100.00;99701.75;5025799;28;19987;-72
2023/11/12 03:20:15;;;;;;;;;;;;;;;5.88;100.00;99707.72;5036574;28;19924;-66
2023/11/12 03:22:42;;;;;;;;;;;;;;;5.88;100.00;99712.97;5010498;28;20395;-70
2023/11/12 03:25:10;;;;;;;;;;;;;;;5.84;100.00;99714.88;4997972;28;19928;-67
2023/11/12 03:27:38;;;;;;;;;;;;;;;5.80;100.00;99715.97;5028070;28;19949;-71
2023/11/12 03:30:05;;;;;;;;;;;;;;;5.86;100.00;99714.81;5029716;28;20020;-68
2023/11/12 03:32:33;;;;;;;;;;;;;;;5.90;100.00;99710.25;5024450;28;20016;-70
2023/11/12 03:35:00;;;;;;;;;;;;;;;5.90;100.00;99711.13;5027334;28;19971;-67
2023/11/12 03:37:28;;;;;;;;;;;;;;;5.91;100.00;99710.19;5032131;28;19980;-68
2023/11/12 03:39:56;;;;;;;;;;;;;;;5.88;100.00;99702.50;5030691;28;19925;-66
2023/11/12 03:42:23;;;;;;;;;;;;;;;5.86;100.00;99711.38;4998772;28;19927;-66
2023/11/12 03:44:50;;;;;;;;;;;;;;;5.89;100.00;99706.81;5043776;28;20219;-68
2023/11/12 03:47:17;;;;;;;;;;;;;;;5.93;100.00;99712.75;5030819;28;19968;-65
2023/11/12 03:49:44;;;;;;;;;;;;;;;5.93;100.00;99716.19;5031947;28;19925;-67
2023/11/12 03:52:12;;;;;;;;;;;;;;;5.91;100.00;99715.41;5028759;28;20564;-68
2023/11/12 03:54:39;;;;;;;;;;;;;;;5.91;100.00;99710.19;5029869;28;19971;-65
2023/11/12 03:57:07;;;;;;;;;;;;;;;5.93;100.00;99721.41;5023376;28;19979;-74
2023/11/12 03:59:34;;;;;;;;;;;;;;;5.86;100.00;99712.22;5028135;28;19994;-68
2023/11/12 04:02:02;;;;;;;;;;;;;;;5.84;100.00;99724.50;5023377;28;20362;-73
2023/11/12 04:04:30;;;;;;;;;;;;;;;5.84;100.00;99719.28;5029714;28;20004;-69
2023/11/12 04:06:57;;;;;;;;;;;;;;;5.80;100.00;99715.13;5013008;28;19929;-67
2023/11/12 04:09:24;;;;;;;;;;;;;;;5.84;100.00;99708.81;5031131;28;19972;-71
2023/11/12 04:11:51;;;;;;;;;;;;;;;5.89;100.00;99706.81;5029393;28;20047;-68
2023/11/12 04:14:18;;;;;;;;;;;;;;;5.95;100.00;99716.13;5028351;28;19929;-67
2023/11/12 04:16:45;;;;;;;;;;;;;;;5.91;100.00;99718.03;5000442;28;19925;-69
2023/11/12 04:19:12;;;;;;;;;;;;;;;5.84;100.00;99722.72;5009128;28;20348;-68
2023/11/12 04:21:39;;;;;;;;;;;;;;;5.75;100.00;99722.38;5027085;28;19952;-68
2023/11/12 04:24:07;;;;;;;;;;;;;;;5.69;100.00;99728.78;5029513;28;19925;-76
2023/11/12 04:26:34;;;;;;;;;;;;;;;5.76;100.00;99719.72;5032699;28;19968;-66
2023/11/12 04:29:06;;;;;;;;;;;;;;;5.80;100.00;99723.81;5036202;28;19926;-74
2023/11/12 04:31:35;;;;;;;;;;;;;;;5.76;100.00;99716.22;5031128;28;19940;-65
2023/11/12 04:34:02;;;;;;;;;;;;;;;5.80;100.00;99722.97;5031669;28;19972;-65
2023/11/12 04:36:30;;;;;;;;;;;;;;;5.76;100.00;99716.22;5038814;28;19929;-73
2023/11/12 04:38:58;;;;;;;;;;;;;;;5.73;100.00;99717.25;5027968;28;20062;-65
2023/11/12 04:41:25;;;;;;;;;;;;;;;5.77;100.00;99717.94;5032479;28;19965;-67
2023/11/12 04:43:54;;;;;;;;;;;;;;;5.73;100.00;99719.84;5034066;28;19933;-65
2023/11/12 04:46:21;;;;;;;;;;;;;;;5.80;100.00;99717.75;5016552;28;19929;-66
2023/11/12 04:48:48;;;;;;;;;;;;;;;5.70;100.00;99730.47;5013008;28;20353;-66
2023/11/12 04:51:18;;;;;;;;;;;;;;;5.64;100.00;99727.34;5032644;28;19948;-66
2023/11/12 04:53:45;;;;;;;;;;;;;;;5.68;100.00;99727.09;5030869;28;19990;-67
2023/11/12 04:56:13;;;;;;;;;;;;;;;5.68;100.00;99729.72;5026974;28;20336;-66
2023/11/12 04:58:41;;;;;;;;;;;;;;;5.76;100.00;99724.94;5026341;28;20079;-68
2023/11/12 05:01:08;;;;;;;;;;;;;;;5.82;100.00;99731.59;5028804;28;19961;-67
2023/11/12 05:03:35;;;;;;;;;;;;;;;5.82;100.00;99721.13;5029479;28;20438;-64
2023/11/12 05:06:03;;;;;;;;;;;;;;;5.91;100.00;99730.25;5037829;28;19975;-65
2023/11/12 05:08:30;;;;;;;;;;;;;;;5.93;100.00;99729.25;5033458;28;20020;-69
2023/11/12 05:10:58;;;;;;;;;;;;;;;5.96;100.00;99730.88;5030867;28;20356;-67
2023/11/12 05:13:25;;;;;;;;;;;;;;;5.81;100.00;99741.19;5013660;28;19983;-65
2023/11/12 05:15:52;;;;;;;;;;;;;;;5.81;100.00;99735.13;5033677;28;19968;-67
2023/11/12 05:18:19;;;;;;;;;;;;;;;5.75;100.00;99733.66;5033604;28;19925;-67
2023/11/12 05:20:47;;;;;;;;;;;;;;;5.83;100.00;99738.47;5029664;28;19972;-71
2023/11/12 05:23:14;;;;;;;;;;;;;;;5.91;100.00;99738.94;5022953;28;19971;-65
2023/11/12 05:25:41;;;;;;;;;;;;;;;5.96;100.00;99746.53;5027173;28;19933;-72
2023/11/12 05:28:08;;;;;;;;;;;;;;;5.99;100.00;99755.06;5012644;28;19936;-67
2023/11/12 05:30:35;;;;;;;;;;;;;;;5.87;100.00;99760.91;5029646;28;20019;-70
2023/11/12 05:33:03;;;;;;;;;;;;;;;5.86;100.00;99758.38;5023905;28;20291;-68
2023/11/12 05:35:30;;;;;;;;;;;;;;;5.92;100.00;99760.69;5027532;28;20521;-65
2023/11/12 05:37:57;;;;;;;;;;;;;;;5.78;100.00;99771.84;5031679;28;19983;-68
2023/11/12 05:40:24;;;;;;;;;;;;;;;5.76;100.00;99758.88;5031542;28;19952;-72
2023/11/12 05:42:51;;;;;;;;;;;;;;;5.78;100.00;99771.84;5033061;28;19925;-62
2023/11/12 05:45:19;;;;;;;;;;;;;;;5.80;100.00;99762.16;5037766;28;20008;-67
2023/11/12 05:47:46;;;;;;;;;;;;;;;5.87;100.00;99760.06;5030451;28;20015;-70
2023/11/12 05:50:14;;;;;;;;;;;;;;;5.93;100.00;99759.75;5032694;28;20040;-63
2023/11/12 05:52:42;;;;;;;;;;;;;;;5.98;100.00;99768.19;5012395;28;19929;-72
2023/11/12 05:55:10;;;;;;;;;;;;;;;6.01;100.00;99774.09;5030046;28;20264;-72
2023/11/12 05:57:37;;;;;;;;;;;;;;;5.98;100.00;99771.66;5026509;28;19979;-69
2023/11/12 06:00:07;;;;;;;;;;;;;;;5.93;100.00;99771.06;5014947;28;19925;-65
2023/11/12 06:02:34;;;;;;;;;;;;;;;5.95;100.00;99769.22;5027088;28;20015;-66
2023/11/12 06:05:03;;;;;;;;;;;;;;;5.99;100.00;99768.13;5029026;28;20327;-73
2023/11/12 06:07:31;;;;;;;;;;;;;;;5.98;100.00;99771.66;5027182;28;19925;-65
2023/11/12 06:09:59;;;;;;;;;;;;;;;6.00;100.00;99782.03;5013006;28;20034;-72
2023/11/12 06:12:26;;;;;;;;;;;;;;;6.00;100.00;99772.41;5012725;28;19960;-63
2023/11/12 06:14:53;;;;;;;;;;;;;;;6.04;100.00;99773.09;4998147;28;19983;-73
2023/11/12 06:17:20;;;;;;;;;;;;;;;5.96;100.00;99776.13;5027869;28;20433;-70
2023/11/12 06:19:47;;;;;;;;;;;;;;;6.00;100.00;99768.97;5022017;28;19963;-72
2023/11/12 06:22:15;;;;;;;;;;;;;;;6.04;100.00;99767.88;5027428;28;20757;-73
2023/11/12 06:24:42;;;;;;;;;;;;;;;6.07;100.00;99780.75;5027446;28;20374;-70
2023/11/12 06:27:10;;;;;;;;;;;;;;;6.06;100.00;99777.31;5028767;28;20290;-70
2023/11/12 06:29:38;;;;;;;;;;;;;;;6.09;100.00;99790.22;5030966;28;19976;-70
2023/11/12 06:32:06;;;;;;;;;;;;;;;6.11;100.00;99779.66;5028164;28;20307;-68
2023/11/12 06:34:34;;;;;;;;;;;;;;;6.15;100.00;99793.41;5029403;28;19987;-68
2023/11/12 06:37:03;;;;;;;;;;;;;;;6.16;100.00;99809.00;5009884;28;19976;-68
2023/11/12 06:39:30;;;;;;;;;;;;;;;6.11;100.00;99804.97;5027011;28;19971;-69
2023/11/12 06:41:58;;;;;;;;;;;;;;;6.16;100.00;99816.00;5012730;28;19990;-65
2023/11/12 06:44:25;;;;;;;;;;;;;;;6.14;100.00;99812.66;5028720;28;20036;-66
2023/11/12 06:46:52;;;;;;;;;;;;;;;6.06;100.00;99805.22;5030998;28;19986;-65
2023/11/12 06:49:20;;;;;;;;;;;;;;;5.96;100.00;99806.63;5029289;28;20004;-68
2023/11/12 06:51:47;;;;;;;;;;;;;;;6.04;100.00;99814.91;5013068;28;20067;-68
2023/11/12 06:54:14;;;;;;;;;;;;;;;6.01;100.00;99815.91;5028363;28;19975;-67
2023/11/12 06:56:42;;;;;;;;;;;;;;;5.94;100.00;99814.53;5024300;28;19925;-68
2023/11/12 06:59:16;;;;;;;;;;;;;;;6.01;100.00;99821.13;5030453;28;19994;-67
2023/11/12 07:01:45;;;;;;;;;;;;;;;6.12;100.00;99827.53;5009813;28;19970;-66
2023/11/12 07:04:12;;;;;;;;;;;;;;;6.20;100.00;99815.75;5026304;28;19929;-64
2023/11/12 07:06:40;;;;;;;;;;;;;;;6.18;100.00;99814.16;5031767;28;20013;-68
2023/11/12 07:09:08;;;;;;;;;;;;;;;6.25;100.00;99816.34;5022308;28;20451;-67
2023/11/12 07:11:35;;;;;;;;;;;;;;;6.22;100.00;99816.53;5025195;28;19936;-66
2023/11/12 07:14:02;;;;;;;;;;;;;;;6.24;100.00;99832.13;5006623;28;19933;-68
2023/11/12 07:16:29;;;;;;;;;;;;;;;6.22;100.00;99829.59;5029450;28;19991;-67
2023/11/12 07:18:57;;;;;;;;;;;;;;;6.23;100.00;99823.44;5024619;28;19929;-66
2023/11/12 07:21:28;;;;;;;;;;;;;;;6.31;100.00;99823.03;5015359;28;19972;-67
2023/11/12 07:23:55;;;;;;;;;;;;;;;6.40;100.00;99829.53;5020115;28;19988;-66
2023/11/12 07:26:24;;;;;;;;;;;;;;;6.46;100.00;99826.59;5009517;28;20024;-67
2023/11/12 07:28:51;;;;;;;;;;;;;;;6.50;100.00;99833.34;5025602;28;20038;-68
2023/11/12 07:31:24;;;;;;;;;;;;;;;6.50;100.00;99839.41;5024297;28;20392;-67
2023/11/12 07:33:52;;;;;;;;;;;;;;;6.46;100.00;99829.19;5017023;28;19934;-64
2023/11/12 07:36:21;;;;;;;;;;;;;;;6.51;100.00;99833.25;5020587;28;20371;-67
2023/11/12 07:38:48;;;;;;;;;;;;;;;6.59;100.00;99849.34;5006266;28;19976;-64
2023/11/12 07:41:15;;;;;;;;;;;;;;;6.64;100.00;99856.13;5012237;28;19932;-68
2023/11/12 07:43:42;;;;;;;;;;;;;;;6.56;100.00;99846.06;5026047;28;19987;-67
2023/11/12 07:46:10;;;;;;;;;;;;;;;6.58;100.00;99855.53;5019273;28;19932;-69
2023/11/12 07:48:38;;;;;;;;;;;;;;;6.59;100.00;99854.59;5011079;28;19961;-68
2023/11/12 07:51:05;;;;;;;;;;;;;;;6.65;100.00;99853.41;5020334;28;20078;-65
2023/11/12 07:53:32;;;;;;;;;;;;;;;6.77;100.00;99857.13;5013033;28;19976;-66
2023/11/12 07:55:59;;;;;;;;;;;;;;;6.87;100.00;99852.22;5024105;28;19991;-65
2023/11/12 07:58:27;;;;;;;;;;;;;;;6.93;100.00;99857.09;5011707;28;19933;-68
2023/11/12 08:00:54;;;;;;;;;;;;;;;6.79;100.00;99860.50;5027411;28;19960;-62
2023/11/12 08:03:21;;;;;;;;;;;;;;;6.76;100.00;99860.69;5012222;28;20277;-66
2023/11/12 08:05:49;;;;;;;;;;;;;;;6.88;100.00;99853.91;5018996;28;20490;-69
2023/11/12 08:08:16;;;;;;;;;;;;;;;6.94;100.00;99850.97;5011042;28;20353;-68
2023/11/12 08:10:43;;;;;;;;;;;;;;;6.97;100.00;99849.00;5018023;28;19933;-67
2023/11/12 08:13:11;;;;;;;;;;;;;;;6.93;100.00;99850.09;5027900;28;20579;-68
2023/11/12 08:15:38;;;;;;;;;;;;;;;7.04;100.00;99850.34;5031004;28;19925;-67
2023/11/12 08:18:05;;;;;;;;;;;;;;;7.09;100.00;99848.31;5026991;28;20051;-67
2023/11/12 08:20:34;;;;;;;;;;;;;;;7.26;100.00;99862.22;5030146;28;19999;-68
2023/11/12 08:23:01;;;;;;;;;;;;;;;7.18;100.00;99849.56;5014779;28;20019;-67
2023/11/12 08:25:28;;;;;;;;;;;;;;;7.21;100.00;99859.03;5034797;28;19933;-67
2023/11/12 08:27:57;;;;;;;;;;;;;;;7.34;100.00;99852.16;5016820;28;19987;-68
2023/11/12 08:30:24;;;;;;;;;;;;;;;7.45;100.00;99862.81;5031488;28;19925;-63
2023/11/12 08:32:51;;;;;;;;;;;;;;;7.11;100.00;99861.28;5029911;28;20003;-69
2023/11/12 08:35:18;;;;;;;;;;;;;;;7.10;100.00;99862.22;5014429;28;19972;-66
2023/11/12 08:37:46;;;;;;;;;;;;;;;7.29;100.00;99862.03;5016055;28;19972;-66
2023/11/12 08:40:13;;;;;;;;;;;;;;;7.27;100.00;99866.50;5035661;28;20358;-66
2023/11/12 08:42:43;;;;;;;;;;;;;;;7.24;100.00;99867.53;5018182;28;19987;-70
2023/11/12 08:45:10;;;;;;;;;;;;;;;7.44;100.00;99871.63;5013933;28;20003;-65
2023/11/12 08:47:38;;;;;;;;;;;;;;;7.23;100.00;99871.06;5032638;28;19925;-68
2023/11/12 08:50:07;;;;;;;;;;;;;;;7.41;100.00;99874.41;5028565;28;20216;-64
2023/11/12 08:52:34;;;;;;;;;;;;;;;7.57;100.00;99875.22;5016424;28;19933;-66
2023/11/12 08:55:01;;;;;;;;;;;;;;;7.69;100.00;99878.88;5035798;28;20002;-67
2023/11/12 08:57:28;;;;;;;;;;;;;;;7.81;100.00;99883.41;5029227;28;19929;-68
2023/11/12 08:59:56;;;;;;;;;;;;;;;7.91;100.00;99886.31;5031505;28;19929;-66
2023/11/12 09:02:23;;;;;;;;;;;;;;;7.87;100.00;99882.19;5036307;28;19933;-69
2023/11/12 09:04:50;;;;;;;;;;;;;;;7.80;99.85;99883.50;5033617;28;19983;-67
2023/11/12 09:07:17;;;;;;;;;;;;;;;7.98;100.00;99877.16;5036074;28;20016;-67
2023/11/12 09:09:44;;;;;;;;;;;;;;;8.25;100.00;99876.44;5029826;28;20391;-66
2023/11/12 09:12:11;;;;;;;;;;;;;;;8.30;98.17;99876.97;5029816;28;20392;-66
2023/11/12 09:14:38;;;;;;;;;;;;;;;8.52;98.45;99872.13;5028811;28;19945;-66
2023/11/12 09:17:06;;;;;;;;;;;;;;;8.79;98.26;99872.19;5028766;28;20569;-67
2023/11/12 09:19:34;;;;;;;;;;;;;;;8.92;95.94;99879.28;5028889;28;19983;-65
2023/11/12 09:22:01;;;;;;;;;;;;;;;9.04;96.48;99876.69;5033726;28;19967;-67
2023/11/12 09:24:28;;;;;;;;;;;;;;;9.12;95.27;99878.81;5040287;28;20356;-66
2023/11/12 09:26:55;;;;;;;;;;;;;;;9.01;94.04;99884.78;5034073;28;19925;-65
2023/11/12 09:29:23;;;;;;;;;;;;;;;8.98;93.54;99884.13;5028792;28;20364;-67
2023/11/12 09:31:50;;;;;;;;;;;;;;;8.82;93.14;99882.47;5034077;28;19929;-67
2023/11/12 09:34:17;;;;;;;;;;;;;;;8.92;92.63;99895.88;5041714;28;19932;-66
2023/11/12 09:36:45;;;;;;;;;;;;;;;8.88;93.06;99889.13;5028824;28;20044;-69
2023/11/12 09:39:13;;;;;;;;;;;;;;;8.70;91.78;99887.66;5028380;28;19993;-67
2023/11/12 09:41:42;;;;;;;;;;;;;;;8.68;92.80;99884.28;5032853;28;19925;-70
2023/11/12 09:44:09;;;;;;;;;;;;;;;8.77;93.09;99892.41;5031945;28;20003;-62
2023/11/12 09:46:36;;;;;;;;;;;;;;;8.38;92.42;99894.91;5014518;28;19979;-69
2023/11/12 09:49:05;;;;;;;;;;;;;;;8.30;92.44;99892.72;5028565;28;20010;-67
2023/11/12 09:51:33;;;;;;;;;;;;;;;8.10;92.52;99886.91;5029114;28;19925;-68
2023/11/12 09:54:00;;;;;;;;;;;;;;;7.97;91.42;99885.97;5011599;28;19965;-66
2023/11/12 09:56:28;;;;;;;;;;;;;;;8.04;90.58;99894.28;5029858;28;20449;-65
2023/11/12 09:58:55;;;;;;;;;;;;;;;8.06;90.80;99892.41;5027123;28;19932;-68
2023/11/12 10:01:22;;;;;;;;;;;;;;;8.10;92.05;99889.53;5020229;28;20348;-67
2023/11/12 10:03:50;;;;;;;;;;;;;;;8.20;91.17;99891.59;5017476;28;19972;-66
2023/11/12 10:06:22;;;;;;;;;;;;;;;8.07;90.70;99894.97;5022957;28;19972;-67
2023/11/12 10:08:49;;;;;;;;;;;;;;;7.99;91.39;99894.56;5022984;28;19965;-67
2023/11/12 10:11:17;;;;;;;;;;;;;;;7.96;92.60;99896.53;5021725;28;19933;-66
2023/11/12 10:13:45;;;;;;;;;;;;;;;8.00;94.35;99898.03;5023692;28;19924;-68
2023/11/12 10:16:25;;;;;;;;;;;;;;;8.09;93.78;99905.34;5002815;28;19934;-69
2023/11/12 10:18:53;;;;;;;;;;;;;;;8.08;93.96;99896.63;5006646;28;20091;-68
2023/11/12 10:21:21;;;;;;;;;;;;;;;8.01;94.82;99900.53;5017261;28;20060;-67
2023/11/12 10:23:58;;;;;;;;;;;;;;;7.99;95.47;99902.44;4995045;28;20350;-65
2023/11/12 10:26:26;;;;;;;;;;;;;;;7.93;96.86;99894.09;5028793;28;19983;-66
2023/11/12 10:28:53;;;;;;;;;;;;;;;7.84;97.60;99900.72;5027617;28;20378;-64
2023/11/12 10:31:34;;;;;;;;;;;;;;;7.84;99.34;99901.56;5027732;28;19929;-67
2023/11/12 10:34:02;;;;;;;;;;;;;;;7.97;99.39;99901.69;5019902;28;19965;-66
2023/11/12 10:36:29;;;;;;;;;;;;;;;8.11;99.99;99908.72;5022856;28;20359;-67
2023/11/12 10:39:02;;;;;;;;;;;;;;;8.15;99.99;99909.38;5023688;28;20447;-67
2023/11/12 10:41:33;;;;;;;;;;;;;;;7.99;100.00;99907.66;5029028;28;19961;-68
2023/11/12 10:44:00;;;;;;;;;;;;;;;7.63;100.00;99908.06;5009138;28;20410;-68
2023/11/12 10:46:32;;;;;;;;;;;;;;;7.59;100.00;99909.16;5024961;28;19933;-67
2023/11/12 10:48:59;;;;;;;;;;;;;;;7.62;100.00;99916.84;5028078;28;19925;-69
2023/11/12 10:51:26;;;;;;;;;;;;;;;7.70;100.00;99909.41;5009824;28;19959;-66
2023/11/12 10:53:56;;;;;;;;;;;;;;;7.85;100.00;99910.28;5015333;28;20015;-68
2023/11/12 10:56:23;;;;;;;;;;;;;;;8.15;100.00;99901.50;5028183;28;20230;-66
2023/11/12 10:58:52;;;;;;;;;;;;;;;8.38;100.00;99908.88;5026397;28;20421;-66
2023/11/12 11:01:19;;;;;;;;;;;;;;;8.46;100.00;99903.97;5013930;28;19929;-68
2023/11/12 11:03:46;;;;;;;;;;;;;;;8.42;100.00;99907.75;5008986;28;19931;-65
2023/11/12 11:06:13;;;;;;;;;;;;;;;8.33;100.00;99903.00;5024127;28;20022;-67
2023/11/12 11:08:41;;;;;;;;;;;;;;;8.15;100.00;99902.38;5028485;28;20295;-68
2023/11/12 11:11:08;;;;;;;;;;;;;;;8.15;100.00;99907.63;5028350;28;19994;-67
2023/11/12 11:13:38;;;;;;;;;;;;;;;8.18;100.00;99907.41;5026794;28;20349;-66
2023/11/12 11:16:05;;;;;;;;;;;;;;;8.25;100.00;99910.50;5010656;28;19968;-69
2023/11/12 11:18:32;;;;;;;;;;;;;;;8.04;100.00;99902.16;5024915;28;20371;-70
2023/11/12 11:21:03;;;;;;;;;;;;;;;8.19;100.00;99903.84;5023391;28;19984;-70
2023/11/12 11:23:40;;;;;;;;;;;;;;;8.22;100.00;99897.59;5025007;28;19929;-65
2023/11/12 11:26:26;;;;;;;;;;;;;;;8.24;100.00;99904.44;4989614;28;20387;-67
2023/11/12 11:29:02;;;;;;;;;;;;;;;8.34;100.00;99905.53;5027755;28;20007;-70
2023/11/12 11:31:33;;;;;;;;;;;;;;;8.34;100.00;99907.34;5025155;28;20015;-63
2023/11/12 11:34:03;;;;;;;;;;;;;;;8.25;100.00;99900.88;5031014;28;19955;-68
2023/11/12 11:36:30;;;;;;;;;;;;;;;8.28;100.00;99907.69;5025844;28;20018;-69
2023/11/12 11:39:10;;;;;;;;;;;;;;;8.13;100.00;99899.81;5011906;28;19940;-65
2023/11/12 11:41:56;;;;;;;;;;;;;;;8.13;100.00;99905.06;5026866;28;20372;-66
2023/11/12 11:44:40;;;;;;;;;;;;;;;7.93;100.00;99909.81;5022623;28;19925;-66
2023/11/12 11:47:17;;;;;;;;;;;;;;;7.81;100.00;99906.97;5023518;28;19974;-65
2023/11/12 11:49:48;;;;;;;;;;;;;;;7.73;100.00;99908.38;5024426;28;19968;-68
2023/11/12 11:52:22;;;;;;;;;;;;;;;7.65;100.00;99910.59;5019151;28;19941;-67
2023/11/12 11:55:10;;;;;;;;;;;;;;;7.55;100.00;99913.75;5026762;28;19960;-67
2023/11/12 11:57:47;;;;;;;;;;;;;;;7.56;100.00;99912.78;5025423;28;19968;-69
2023/11/12 12:00:16;;;;;;;;;;;;;;;7.60;100.00;99922.16;5027664;28;19932;-67
2023/11/12 12:02:44;;;;;;;;;;;;;;;7.43;100.00;99924.94;5024066;28;19944;-68
2023/11/12 12:05:15;;;;;;;;;;;;;;;7.41;100.00;99911.06;5026147;28;19929;-67
2023/11/12 12:07:45;;;;;;;;;;;;;;;7.50;100.00;99915.78;5026005;28;19975;-64
2023/11/12 12:10:25;;;;;;;;;;;;;;;7.53;100.00;99915.63;5025977;28;20688;-65
2023/11/12 12:12:53;;;;;;;;;;;;;;;7.61;100.00;99917.81;5026654;28;19979;-66
2023/11/12 12:15:21;;;;;;;;;;;;;;;7.49;100.00;99914.09;5022216;28;19971;-64
2023/11/12 12:17:48;;;;;;;;;;;;;;;7.58;100.00;99920.59;5006838;28;20039;-66
2023/11/12 12:20:15;;;;;;;;;;;;;;;7.64;100.00;99917.59;5018762;28;19959;-66
2023/11/12 12:22:42;;;;;;;;;;;;;;;7.68;100.00;99910.41;5026522;28;19930;-65
2023/11/12 12:25:09;;;;;;;;;;;;;;;7.71;100.00;99918.94;5011995;28;19975;-66
2023/11/12 12:27:36;;;;;;;;;;;;;;;7.61;100.00;99921.25;5026459;28;19972;-66
2023/11/12 12:30:07;;;;;;;;;;;;;;;7.70;100.00;99921.63;5010349;28;20378;-68
2023/11/12 12:32:35;;;;;;;;;;;;;;;7.64;100.00;99932.47;5015629;28;20482;-66
2023/11/12 12:35:02;;;;;;;;;;;;;;;7.63;100.00;99929.03;4997691;28;20382;-65
2023/11/12 12:37:30;;;;;;;;;;;;;;;7.64;100.00;99922.00;5025025;28;19926;-65
2023/11/12 12:40:03;;;;;;;;;;;;;;;7.52;100.00;99920.91;5024805;28;19929;-66
2023/11/12 12:42:31;;;;;;;;;;;;;;;7.64;100.00;99920.22;5005906;28;19925;-66
2023/11/12 12:44:58;;;;;;;;;;;;;;;7.89;100.00;99924.03;5024397;28;19990;-62
2023/11/12 12:47:41;;;;;;;;;;;;;;;8.14;100.00;99919.00;5029035;28;20012;-67
2023/11/12 12:50:15;;;;;;;;;;;;;;;8.29;100.00;99922.50;5029349;28;19929;-66
2023/11/12 12:52:44;;;;;;;;;;;;;;;8.26;100.00;99923.53;5025876;28;19925;-67